Tiempo atmosférico en la estación meteorológica de La Covatilla, estación de esquí, Salamanca (1960 m.)



Fecha
DESCASC
Temp. máxima en grados centígrados (hora)
DESCASC
Temp. mínima en grados centígrados (hora)
DESCASC
Temp. media en grados centígrados
DESCASC
Racha de viento máxima en m/sg (hora)
DESCASC
Velocidad máxima media en intervalos de 10 minutos(hora)
DESCASC
Precipitaciones diarias en mm
DESCASC
Precipitaciones de 00:00 a 06:00 en mm
DESCASC
Precipitaciones de 06:00 a 12:00 en mm
DESCASC
Precipitaciones de 12:00 a 18:00 en mm
DESCASC
Precipitaciones de 18:00 a 24:00 en mm
DESCASC
05-04-2020 7.4 (12:10) 1.8 (01:20) 4.6 -- (--) -- (--) 12 0 0 1.6 10.4
04-04-2020 7.3 (14:40) -0.5 (05:30) 3.4 -- (--) -- (--) 0 0 0 0 0
03-04-2020 7.3 (13:40) -1.2 (04:30) 3.1 -- (--) -- (--) 0 0 0 0 0
02-04-2020 2.4 (12:30) -2.8 (-00:0) -0.2 -- (--) -- (--) 0.6 0 0 0 0.6
01-04-2020 2.8 (16:00) -2.6 (-00:0) 0.1 -- (--) -- (--) 1 0 0.6 0.4 0
31-03-2020 3.6 (13:50) -5.7 (-00:0) -1 13.89 (23:40) 10 (23:40) 4.2 0 1 2.6 0.6
30-03-2020 2.1 (00:10) -5.8 (-00:0) -1.9 -- (--) -- (--) 0.6 0 0 0.6 0
29-03-2020 7 (13:40) -1.6 (-00:0) 2.7 6.67 (01:00) 4.72 (01:20) 0 0 0 0 0
28-03-2020 6.7 (15:30) -2.7 (-00:0) 2 -- (--) -- (--) 0 0 0 0 0
27-03-2020 2.5 (15:00) -4.1 (-00:0) -0.8 -- (--) -- (--) 0 0 0 0 0
26-03-2020 6.5 (11:20) -1.9 (-00:0) 2.3 -- (--) -- (--) 0 0 0 0 0
25-03-2020 5.5 (16:00) -0.5 (-00:0) 2.5 -- (--) -- (--) 4.6 0 0 0.2 4.4
24-03-2020 5.1 (15:30) 0 (00:00) 2.5 -- (--) -- (--) 0 0 0 0 0
23-03-2020 3.2 (17:50) -0.8 (-00:0) 1.2 -- (--) -- (--) 0 0 0 0 0
22-03-2020 3.9 (14:20) -3 (00:10) 0.5 10.56 (23:20) 8.06 (23:50) 1 0 0 0.8 0.2
21-03-2020 3 (14:50) -2.9 (-00:0) 0 -- (--) -- (--) 8.4 3.8 4.4 0.2 0
20-03-2020 6 (11:20) 1.5 (00:00) 3.8 -- (--) -- (--) 7.6 0 1.6 0 6
19-03-2020 9.2 (10:20) 3.3 (00:00) 6.2 9.44 (00:40) 6.94 (00:40) 0 0 0 0 0
18-03-2020 8.9 (15:30) 2.4 (00:00) 5.6 19.72 (09:30) 11.94 (12:00) 0 0 0 0 0
17-03-2020 4.2 (16:40) -6 (-00:0) -0.9 -- (--) -- (--) 26.4 0 0 17.4 9
16-03-2020 -3.9 (18:10) -6.2 (-00:0) -5 -- (--) -- (--) 0 0 0 0 0
15-03-2020 9.3 (12:40) -4.8 (-00:0) 2.3 19.17 (14:20) 12.22 (15:50) 0 0 0 0 0
14-03-2020 11.8 (13:20) 2.3 (00:00) 7.1 10.56 (02:50) 8.33 (02:50) 0 0 0 0 0
13-03-2020 12 (11:00) 3 (07:40) 7.5 8.33 (21:20) 6.11 (20:50) 0 0 0 0 0
12-03-2020 15.6 (15:20) 6.3 (00:00) 11 16.39 (04:00) 9.17 (04:40) 0 0 0 0 0
11-03-2020 16.8 (12:30) 8.7 (00:00) 12.7 -- (--) -- (--) 0 0 0 0 0
10-03-2020 15.4 (13:40) 4.6 (00:00) 10 -- (--) -- (--) 0 0 0 0 0

Gráficas

Temp. máximas Temp. mínimas Temp. medias Precipitaciones Rachas de viento máximas Velocidades máximas media en intervalos de 10 minutos

Datos horarios

Fecha y hora oficial Temperatura (ºC) Velocidad del viento (km/h) Dirección del viento Racha (km/h) Dirección de racha Precipitación (mm) Presión (hPa) Tendencia (hPa) Humedad (%)
2020-04-08 23:00:00 7.4 11 Sur 19 Sur 0 808 0.5 69
2020-04-08 22:00:00 6.5 8 Sudeste 22 Sur 0 807.8 0.4 72
2020-04-08 21:00:00 7.6 19 Sur 24 Sur 0 807.3 -0.1 72
2020-04-08 20:00:00 7.1 10 Noroeste 17 Oeste 0 807.5 -0.1 96
2020-04-08 19:00:00 7.7 10 Oeste 15 Oeste 0 807.4 -0.5 93
2020-04-08 18:00:00 8 9 Noroeste 18 Oeste 0 807.4 -0.8 92
2020-04-08 17:00:00 8.1 9 Oeste 17 Oeste 0 807.6 -0.8 93
2020-04-08 16:00:00 9.5 4 Oeste 13 Noroeste 0 807.9 -0.8 80
2020-04-08 15:00:00 7.7 6 Noroeste 14 Oeste 0 808.2 -0.5 85
2020-04-08 14:00:00 7.6 7 Noroeste 18 Noroeste 0 808.4 -0.3 84
2020-04-08 13:00:00 7.8 10 Noroeste 19 Noroeste 0 808.7 0.2 83
2020-04-08 12:00:00 10.2 7 Noroeste 15 Noroeste 0 808.7 0.4 66
2020-04-08 11:00:00 6.4 6 Oeste 18 Oeste 0 808.7 0.6 76
2020-04-08 10:00:00 7.3 8 Sur 23 Sur 0 808.5 0.5 71
2020-04-08 09:00:00 6.6 15 Sudoeste 30 Sudoeste 0 808.3 0.2 75
2020-04-08 08:00:00 4.4 13 Sur 28 Sudoeste 0 808.1 -0.4 83
2020-04-08 07:00:00 4.7 19 Sur 30 Sur 0 808 -0.8 81
2020-04-08 06:00:00 4.5 14 Sur 32 Sudoeste 0 808.1 -1.1 82
2020-04-08 05:00:00 4.6 18 Sur 29 Sur 0 808.5 -1 79
2020-04-08 04:00:00 4.2 12 Sur 18 Sur 0 808.8 -0.8 77
2020-04-08 03:00:00 3.9 11 Sudoeste 26 Sur 0 809.2 -0.4 58
2020-04-08 02:00:00 4.5 11 Sur 22 Sur 0 809.5 -0.1 70
2020-04-08 01:00:00 2.9 9 Sur 20 Sur 0 809.6 0.6 64
2020-04-08 00:00:00 4.1 11 Sur 18 Sur 0 809.6 1.3 65
2020-04-07 23:00:00 4.6 5 Sur 29 Sur 0 809.6 1.1 73
2020-04-07 22:00:00 5.6 18 Sur 33 Sur 0 809 0.8 77
2020-04-07 21:00:00 5.8 14 Sur 28 Sur 0 808.3 0.2 86
2020-04-07 20:00:00 6.7 14 Sudoeste 30 Oeste 0 808.5 0.3 91
2020-04-07 19:00:00 8.1 17 Sudoeste 31 Oeste 0 808.2 0.1 83
2020-04-07 18:00:00 8.2 -- -- -- -- 0 808.1 -0.2 85
2020-04-07 17:00:00 9.4 11 Oeste -- -- 0 808.2 -0.1 85
2020-04-07 16:00:00 9.9 20 Noroeste -- -- 0 808.1 -0.2 79
2020-04-07 15:00:00 11 14 Sudoeste 34 Sudoeste 0 808.3 0.1 61
2020-04-07 14:00:00 9.4 10 Oeste 26 Sudoeste 0 808.3 0.4 84
2020-04-07 13:00:00 9.2 10 Sur 23 Sur 0 808.3 0.7 72
2020-04-07 12:00:00 8.9 17 Sur -- -- 0 808.2 0.9 74
2020-04-07 11:00:00 7.6 -- -- -- -- 0 807.9 1 81
2020-04-07 10:00:00 6.2 19 Sur -- -- 0 807.6 0.7 85
2020-04-07 09:00:00 5.8 -- -- -- -- 0 807.3 0.4 85
2020-04-07 08:00:00 4.8 -- -- -- -- 0 806.9 0 82
2020-04-07 07:00:00 4.7 18 Sudoeste 29 Sudoeste 0 806.9 -0.3 84
2020-04-07 06:00:00 4.4 11 Sudoeste -- -- 0 806.9 -0.5 82
2020-04-07 05:00:00 4.6 12 Sur 22 Sur 0 806.9 -0.2 75
2020-04-07 04:00:00 4.3 13 Sudoeste -- -- 0 807.2 0.3 76
2020-04-07 03:00:00 4.8 -- -- -- -- 0 807.4 0.4 80
2020-04-07 02:00:00 4.9 15 Sudoeste -- -- 0 807.1 0.1 77
2020-04-07 01:00:00 4.6 -- -- -- -- 0 806.9 0 83
2020-04-07 00:00:00 5.3 -- -- -- -- 0 807 0.9 81
2020-04-06 23:00:00 4.3 -- -- -- -- 0 807 0.8 95
2020-04-06 22:00:00 4.4 -- -- -- -- 0 806.9 1.2 93
2020-04-06 21:00:00 4.6 -- -- -- -- 0 806.1 0.3 86
2020-04-06 20:00:00 4.5 -- -- -- -- 0 806.2 0.1 96
2020-04-06 19:00:00 4.9 -- -- -- -- 0 805.7 -0.6 89
2020-04-06 18:00:00 5 -- -- -- -- 0 805.8 -0.4 92
2020-04-06 17:00:00 5.1 11 Sudoeste -- -- 0.2 806.1 0 92
2020-04-06 16:00:00 5.1 8 Oeste 32 Sudoeste 0 806.3 0.3 92
2020-04-06 15:00:00 6.3 13 Sudoeste 28 Oeste 0 806.2 0.6 80
2020-04-06 14:00:00 5.3 9 Oeste 32 Sur 0 806.1 1 87
2020-04-06 13:00:00 5.6 12 Oeste 22 Sudoeste 0 806 1.6 86
2020-04-06 12:00:00 6 14 Oeste -- -- 0 805.6 1.7 81
2020-04-06 11:00:00 5.3 -- -- -- -- 0 805.1 2.1 62
2020-04-06 10:00:00 4.8 -- -- -- -- 0 804.4 1.7 63
2020-04-06 09:00:00 5 19 Sudoeste -- -- 0 803.9 1.4 40
2020-04-06 08:00:00 5.2 -- -- -- -- 0 803 0.9 35
2020-04-06 07:00:00 5.1 -- -- -- -- 0 802.7 0.5 40
2020-04-06 06:00:00 4.4 19 Sudoeste -- -- 0 802.5 0.8 46
2020-04-06 05:00:00 3.9 -- -- -- -- 0 802.1 0 86
2020-04-06 04:00:00 6.1 -- -- -- -- 0 802.2 -0.1 52
2020-04-06 03:00:00 4.3 -- -- -- -- 0 801.7 -0.7 81
2020-04-06 02:00:00 4.2 -- -- -- -- 0 802.1 -0.3 94
2020-04-06 01:00:00 4.7 -- -- -- -- 0.6 802.3 0.2 96
2020-04-06 00:00:00 4.9 -- -- -- -- 0.8 802.4 1.1 98
2020-04-05 23:00:00 5 -- -- -- -- 1.4 802.4 0.9 98
2020-04-05 22:00:00 4.6 -- -- -- -- 3.8 802.1 0.8 98
2020-04-05 21:00:00 5.1 -- -- -- -- 1.8 801.3 -0.1 98
2020-04-05 20:00:00 5 -- -- -- -- 1.2 801.5 0 97
2020-04-05 19:00:00 4.8 30 Sur 51 Sur 1.4 801.3 -0.4 97
2020-04-05 18:00:00 4.8 24 Sur 48 Sur 1.2 801.4 -0.6 97
2020-04-05 17:00:00 5.5 31 Sur 50 Sur 0.4 801.5 -0.4 93
2020-04-05 16:00:00 5.4 29 Sur -- -- 0 801.7 -0.5 88
2020-04-05 15:00:00 5.5 -- -- -- -- 0 802 0.2 86
2020-04-05 14:00:00 6.3 -- -- -- -- 0 801.9 0.4 77
2020-04-05 13:00:00 6 -- -- -- -- 0 802.2 0.7 79
2020-04-05 12:00:00 7 -- -- -- -- 0 801.8 0.7 72
2020-04-05 11:00:00 5.6 -- -- -- -- 0 801.5 0.9 77
2020-04-05 10:00:00 3.6 -- -- -- -- 0 801.5 1.4 85
2020-04-05 09:00:00 2.7 -- -- -- -- 0 801.1 0.9 90
2020-04-05 08:00:00 3.4 -- -- -- -- 0 800.6 0.3 82
2020-04-05 07:00:00 3.3 -- -- -- -- 0 800.1 -0.4 81
2020-04-05 06:00:00 2.5 -- -- -- -- 0 800.2 -0.5 90
2020-04-05 05:00:00 2.6 -- -- -- -- 0 800.3 -0.6 91
2020-04-05 04:00:00 2.5 -- -- -- -- 0 800.5 -0.2 89
2020-04-05 03:00:00 2.3 -- -- -- -- 0 800.7 0.3 96
2020-04-05 02:00:00 2 -- -- -- -- 0 800.9 0.8 95
2020-04-05 01:00:00 2 28 Sur 55 Sur 0 800.7 0.7 92
2020-04-05 00:00:00 2.1 40 Sur 55 Sur 0 800.4 0.4 86
2020-04-04 23:00:00 2.5 45 Sur 63 Sur 0 800.1 0.1 80
2020-04-04 22:00:00 2.8 35 Sur 55 Sur 0 800 -0.1 83
2020-04-04 21:00:00 3.1 23 Sur -- -- 0 800 0.2 81
2020-04-04 20:00:00 3.6 14 Sudeste 40 Sur 0 800 0.2 78
2020-04-04 19:00:00 3.8 17 Sur 37 Sur 0 800.1 0 76
2020-04-04 18:00:00 4.6 10 Sudeste -- -- 0 799.8 -0.5 71
2020-04-04 17:00:00 4.9 -- -- -- -- 0 799.8 -0.3 63
2020-04-04 16:00:00 5.5 14 Sudeste -- -- 0 800.1 0 59
2020-04-04 15:00:00 6 11 Sudeste -- -- 0 800.3 0 53
2020-04-04 14:00:00 5.9 -- -- -- -- 0 800.1 -0.1 54
2020-04-04 13:00:00 5.9 -- -- -- -- 0 800.1 0.1 62
2020-04-04 12:00:00 6 20 Sudeste -- -- 0 800.3 0.5 56
2020-04-04 11:00:00 5 20 Sur -- -- 0 800.2 0.6 56
2020-04-04 10:00:00 4.6 11 Sudeste 33 Nordeste 0 800 0.4 59
2020-04-04 09:00:00 2.9 10 Sudeste -- -- 0 799.8 -0.1 60
2020-04-04 08:00:00 0 7 Sur 21 Sudoeste 0 799.6 -0.8 61
2020-04-04 07:00:00 0.1 7 Sudoeste 24 Oeste 0 799.6 -1.2 59
2020-04-04 06:00:00 1 7 Oeste 14 Oeste 0 799.9 -1.3 52
2020-04-04 05:00:00 1.8 8 Oeste 30 Oeste 0 800.4 -1.1 55
2020-04-04 04:00:00 0.5 8 Sur 22 Sur 0 800.8 -1 70
2020-04-04 03:00:00 1 14 Sudoeste 25 Sur 0 801.2 -0.9 70
2020-04-04 02:00:00 1.3 8 Sudoeste 20 Sudoeste 0 801.5 -0.6 56
2020-04-04 01:00:00 1.6 5 Sudeste 19 Sur 0 801.8 -0.2 82
2020-04-04 00:00:00 0.8 6 Sudoeste 14 Sur 0 802.1 0.6 88
2020-04-03 23:00:00 1.2 9 Este 11 Este 0 802.1 0.4 87
2020-04-03 22:00:00 1.9 6 Sudeste 9 Sudeste 0 802 0.6 84
2020-04-03 21:00:00 3.5 4 Nordeste 14 Oeste 0 801.5 0.1 78
2020-04-03 20:00:00 5.1 7 Oeste 15 Oeste 0 801.7 0.1 74
2020-04-03 19:00:00 5.8 11 Oeste 18 Oeste 0 801.4 -0.5 71
2020-04-03 18:00:00 6.2 6 Noroeste 15 Oeste 0 801.4 -0.7 69
2020-04-03 17:00:00 6.2 9 Noroeste 20 Oeste 0 801.6 -0.7 69
2020-04-03 16:00:00 5.9 11 Oeste 23 Noroeste 0 801.9 -0.6 71
2020-04-03 15:00:00 5.5 12 Oeste 22 Noroeste 0 802.1 -0.2 73
2020-04-03 14:00:00 5.8 12 Oeste 21 Noroeste 0 802.3 0.5 65
2020-04-03 13:00:00 5.8 9 Oeste 23 Oeste 0 802.5 0.9 62
2020-04-03 12:00:00 4.3 10 Nordeste 22 Nordeste 0 802.3 0.9 73
2020-04-03 11:00:00 2.9 17 Nordeste 24 Nordeste 0 801.8 0.9 78
2020-04-03 10:00:00 1.6 16 Este 22 Este 0 801.6 0.8 81
2020-04-03 09:00:00 0.6 17 Este -- -- 0 801.4 0.7 84
2020-04-03 08:00:00 -0.8 -- -- -- -- 0 800.9 0.2 86
2020-04-03 07:00:00 -0.8 16 Este 27 Este 0 800.8 0.1 81
2020-04-03 06:00:00 -0.3 -- -- -- -- 0 800.7 -0.1 73
2020-04-03 05:00:00 -0.6 -- -- -- -- 0 800.7 -0.4 75
2020-04-03 04:00:00 -1.1 -- -- -- -- 0 800.7 -0.5 79
2020-04-03 03:00:00 -0.4 -- -- -- -- 0 800.8 -0.6 73
2020-04-03 02:00:00 -0.5 -- -- -- -- 0 801.1 0 82
2020-04-03 01:00:00 -0.5 -- -- -- -- 0 801.2 0.3 93
2020-04-03 00:00:00 -0.2 -- -- -- -- 0 801.4 1.1 100
2020-04-02 23:00:00 -0.5 -- -- -- -- 0 801.1 1.1 --
2020-04-02 22:00:00 0.2 -- -- -- -- 0 800.9 1.3 100
2020-04-02 21:00:00 0.2 -- -- -- -- 0 800.3 1.1 100
2020-04-02 20:00:00 0.6 -- -- -- -- 0.6 800 1 100
2020-04-02 19:00:00 1.1 13 Nordeste 25 Este 0 799.6 0.7 99
2020-04-02 18:00:00 1.1 17 Este 26 Este 0 799.2 0.7 94
2020-04-02 17:00:00 1.7 15 Este -- -- 0 799 0.4 92
2020-04-02 16:00:00 1 18 Nordeste -- -- 0 798.9 0.5 95
2020-04-02 15:00:00 1.2 18 Nordeste 27 Nordeste 0 798.5 0.5 90
2020-04-02 14:00:00 0.5 17 Nordeste -- -- 0 798.6 1.3 94
2020-04-02 13:00:00 -0.2 19 Este -- -- 0 798.4 1.7 97
2020-04-02 12:00:00 0.4 25 Este -- -- 0 798 1.7 95
2020-04-02 11:00:00 -0.5 -- -- -- -- 0 797.3 1.4 100
2020-04-02 10:00:00 -1.2 -- -- -- -- 0 796.7 0.9 100
2020-04-02 09:00:00 -1.6 -- -- -- -- 0 796.3 0.9 100
2020-04-02 08:00:00 -1.9 -- -- -- -- 0 795.9 0.4 100
2020-04-02 07:00:00 -2.4 -- -- -- -- 0 795.8 0 98
2020-04-02 06:00:00 -2.4 19 Este -- -- 0 795.4 -0.9 93
2020-04-02 05:00:00 -2.5 23 Este 32 Este 0 795.5 -1.1 96
2020-04-02 04:00:00 -2.4 21 Este 28 Este 0 795.8 -1.2 91
2020-04-02 03:00:00 -2.5 -- -- -- -- 0 796.3 -0.8 97
2020-04-02 02:00:00 -2.4 -- -- -- -- 0 796.6 -0.4 87
2020-04-02 01:00:00 -2.2 -- -- -- -- 0 797 0.3 84
2020-04-02 00:00:00 -2.2 16 Sudeste 20 Sudeste 0 797.1 0.8 76
2020-04-01 23:00:00 -2.4 13 Sudeste 18 Sudeste 0 797 0.7 74
2020-04-01 22:00:00 -1.6 13 Sudeste 18 Sudeste 0 796.7 0.6 71
2020-04-01 21:00:00 -1.1 14 Sudeste 22 Sur 0 796.3 0.3 80
2020-04-01 20:00:00 0.4 7 Sudoeste 18 Sur 0 796.3 0.3 72
2020-04-01 19:00:00 0.5 10 Sur 21 Sur 0 796.1 0.1 72
2020-04-01 18:00:00 1.5 14 Sur 27 Sur 0 796 0 62
2020-04-01 17:00:00 2.1 14 Sur 29 Sur 0 796 0 64
2020-04-01 16:00:00 2.4 10 Sur 21 Sur 0 796 0 61
2020-04-01 15:00:00 2 9 Sudoeste -- -- 0 796 0.4 60
2020-04-01 14:00:00 0.1 18 Sur -- -- 0 796 0.6 76
2020-04-01 13:00:00 -0.7 18 Sudeste -- -- 0.4 796 0.8 80
2020-04-01 12:00:00 -0.6 -- -- -- -- 0.6 795.6 0.8 82
2020-04-01 11:00:00 -0.4 -- -- -- -- 0 795.4 1.1 77
2020-04-01 10:00:00 -2 15 Sudeste 32 Sudeste 0 795.2 1.1 94
2020-04-01 09:00:00 -2 18 Sur 32 Sur 0 794.8 0.8 93
2020-04-01 08:00:00 -2.2 9 Sur 27 Sudeste 0 794.3 0.4 95
2020-04-01 07:00:00 -2.4 11 Este -- -- 0 794.1 0.2 90
2020-04-01 06:00:00 -2.4 17 Sudeste -- -- 0 794 -0.1 92
2020-04-01 05:00:00 -2.1 -- -- -- -- 0 793.9 -0.2 82
2020-04-01 04:00:00 -1.9 -- -- -- -- 0 793.9 0.3 89
2020-04-01 03:00:00 -1.3 -- -- -- -- 0 794.1 0.6 92
2020-04-01 02:00:00 -0.5 -- -- -- -- 0 794.1 0.7 95
2020-04-01 01:00:00 -0.5 35 Sur 55 Sur 0 793.6 0.5 91
2020-04-01 00:00:00 -0.5 28 Sur 50 Sur 0 793.5 1.4 86
2020-03-31 23:00:00 -0.1 24 Sur 46 Sur 0 793.4 1.7 87
2020-03-31 22:00:00 0.2 9 Sudoeste 34 Sur 0 793.1 1.7 96
2020-03-31 21:00:00 0.6 14 Sudoeste 35 Sur 0 792.1 1 92
2020-03-31 20:00:00 0.6 18 Sur 32 Sur 0.2 791.7 1.1 93
2020-03-31 19:00:00 0.8 18 Sur 33 Sur 0.4 791.4 1 97
2020-03-31 18:00:00 1.4 17 Sudoeste 31 Sudoeste 0.2 791.1 0.8 93
2020-03-31 17:00:00 2.4 14 Sudoeste 34 Sur 0 790.6 0.8 92
2020-03-31 16:00:00 2.6 16 Sudoeste 36 Sur 0 790.4 0.9 87
2020-03-31 15:00:00 1.8 16 Sur 35 Sur 1 790.3 1.1 92
2020-03-31 14:00:00 2.2 19 Sur 39 Sudoeste 1.4 789.8 0.8 84
2020-03-31 13:00:00 0.1 23 Sur 41 Sur 0 789.5 0.8 91
2020-03-31 12:00:00 -0.5 19 Sudeste 33 Sudeste 1 789.2 0.5 94
2020-03-31 11:00:00 0.8 11 Sudeste 31 Sudeste 0 789 0.5 94
2020-03-31 10:00:00 -1.4 20 Sudeste 36 Sudeste 0 788.7 0 99
2020-03-31 09:00:00 -2 17 Sudeste 31 Sudeste 0 788.7 0.1 99
2020-03-31 08:00:00 -2.6 24 Sudeste 36 Sudeste 0 788.5 -0.8 100
2020-03-31 07:00:00 -0.9 16 Sur 41 Sudeste 0 788.7 -1.1 96
2020-03-31 06:00:00 -2.3 25 Sudeste 38 Sudeste 0 788.6 -2.2 98
2020-03-31 05:00:00 -1.7 24 Sudeste 37 Sudeste 0 789.3 -2 97
2020-03-31 04:00:00 -1.4 22 Sudeste 34 Sur 0 789.8 -2.1 96
2020-03-31 03:00:00 -2.8 17 Sudeste 31 Sudeste 0 790.8 -1.8 98
2020-03-31 02:00:00 -3.7 19 Sudeste 35 Sudeste 0 791.3 -1.8 99
2020-03-31 01:00:00 -3.7 22 Sudeste 36 Sudeste 0 791.9 -1.4 99
2020-03-31 00:00:00 -3.6 23 Sudeste 33 Sudeste 0 792.6 -0.8 99
2020-03-30 23:00:00 -3.7 -- -- -- -- 0 793.1 -0.6 99
2020-03-30 22:00:00 -5.6 -- -- -- -- 0 793.3 -0.6 98
2020-03-30 21:00:00 -5.6 -- -- -- -- 0 793.4 -1.1 98
2020-03-30 20:00:00 -5.8 18 Nordeste -- -- 0 793.7 -1.2 98
2020-03-30 19:00:00 -5.2 -- -- -- -- 0 793.9 -1.7 98
2020-03-30 18:00:00 -5.3 -- -- -- -- 0 794.5 -1.5 98
2020-03-30 17:00:00 -4.1 12 Nordeste 17 Nordeste 0.2 794.9 -1.6 98
2020-03-30 16:00:00 -3.6 11 Nordeste 18 Nordeste 0.4 795.6 -1.4 98
2020-03-30 15:00:00 -3.7 10 Nordeste 14 Nordeste 0 796 -1.5 96
2020-03-30 14:00:00 -1.9 10 Este 16 Este 0 796.5 -1.1 94
2020-03-30 13:00:00 -3.7 11 Nordeste 21 Nordeste 0 797 -0.6 98
2020-03-30 12:00:00 -4.6 18 Nordeste 22 Este 0 797.5 -0.4 99
2020-03-30 11:00:00 -3.9 5 Este 13 Nordeste 0 797.6 -0.2 99
2020-03-30 10:00:00 -2.8 3 Nordeste 12 Nordeste 0 797.6 -0.4 98
2020-03-30 09:00:00 -0.9 3 Este 10 Este 0 797.9 -0.5 100
2020-03-30 08:00:00 -1 7 Este 13 Sur 0 797.8 -1.3 100
2020-03-30 07:00:00 -1.7 3 Este 10 Este 0 798 -1.6 100
2020-03-30 06:00:00 0.3 9 Este 14 Este 0 798.4 -1.8 84
2020-03-30 05:00:00 1.3 6 Este 18 Sudeste 0 799.1 -1.8 77
2020-03-30 04:00:00 1.2 13 Sudeste 17 Sudeste 0 799.6 -1.8 79
2020-03-30 03:00:00 1.4 10 Este 13 Este 0 800.2 -1.7 82
2020-03-30 02:00:00 1.1 5 Este 14 Nordeste 0 800.9 -1.3 84
2020-03-30 01:00:00 2 8 Este 10 Este 0 801.4 -0.9 77
2020-03-30 00:00:00 2 3 Sudeste 6 Sudeste 0 801.9 -0.1 80
2020-03-29 23:00:00 2.5 3 Sudoeste 8 Sudoeste 0 802.2 0 81
2020-03-29 22:00:00 2.6 4 Sudoeste 10 Sudoeste 0 802.3 0.1 81
2020-03-29 21:00:00 2.4 6 Sudoeste 12 Oeste 0 802 -0.3 81
2020-03-29 20:00:00 3.4 10 Sudoeste 19 Oeste 0 802.2 -0.5 76
2020-03-29 19:00:00 4.8 8 Oeste 13 Oeste 0 802.2 -0.8 70
2020-03-29 18:00:00 4.9 6 Oeste 18 Oeste 0 802.3 -1.1 67
2020-03-29 17:00:00 5.4 10 Noroeste 18 Oeste 0 802.7 -0.8 62
2020-03-29 16:00:00 5.4 9 Noroeste 20 Oeste 0 803 -0.7 61
2020-03-29 15:00:00 5.1 6 Oeste 16 Noroeste 0 803.4 -0.5 61
2020-03-29 14:00:00 5.4 9 Este 23 Este 0 803.5 -0.3 59
2020-03-29 13:00:00 5.8 5 Oeste 18 Nordeste 0 803.7 0 58
2020-03-29 12:00:00 5.8 9 Nordeste 21 Nordeste 0 803.9 0.2 60
2020-03-29 11:00:00 2.8 11 Nordeste 15 Nordeste 0 803.8 0.5 69
2020-03-29 10:00:00 5.2 3 Nordeste 10 Norte 0 803.7 0.4 60
2020-03-29 09:00:00 -0.2 5 Sur 12 Sudeste 0 803.7 0.3 74
2020-03-29 08:00:00 -1.2 8 Sudeste 11 Sur 0 803.3 -0.1 77
2020-03-29 07:00:00 -1.2 9 Sur 13 Sur 0 803.3 -0.4 76
2020-03-29 06:00:00 -0.5 10 Sur 16 Sudeste 0 803.4 -0.6 72
2020-03-29 05:00:00 -0.5 12 Sudeste 17 Sudeste 0 803.4 -0.7 72
2020-03-29 03:00:00 0.7 15 Sudeste 21 Sudeste 0 804 -0.3 70
2020-03-29 01:00:00 0.9 16 Sudeste 24 Sudeste 0 804.1 -0.1 67
2020-03-29 00:00:00 0.4 17 Sudeste 19 Sudeste 0 804.2 0.5 73
2020-03-28 23:00:00 0.9 10 Sudeste 15 Sudeste 0 804.3 1.1 74
2020-03-28 22:00:00 0.4 7 Sudeste 10 Sudeste 0 804.2 1.5 77
2020-03-28 21:00:00 1 6 Este 9 Sudeste 0 803.7 1.3 72
2020-03-28 20:00:00 1.1 7 Sur 9 Sur 0 803.2 1.1 78
2020-03-28 19:00:00 3.1 6 Oeste 16 Oeste 0 802.7 0.7 78
2020-03-28 18:00:00 4.2 10 Oeste 20 Oeste 0 802.4 0.4 70
2020-03-28 17:00:00 4.2 9 Oeste 23 Oeste 0 802.1 0.1 66
2020-03-28 16:00:00 5.5 10 Oeste 23 Noroeste 0 802 0.2 58
2020-03-28 15:00:00 4.9 10 Norte 22 Noroeste 0 802 0.2 64
2020-03-28 14:00:00 5.1 8 Noroeste 26 Nordeste 0 802 0.6 65
2020-03-28 13:00:00 5.2 16 Este 30 Este 0 801.8 0.8 46
2020-03-28 12:00:00 4 15 Nordeste 27 Este 0 801.8 1.3 42
2020-03-28 11:00:00 3.4 15 Este 27 Este 0 801.4 1.4 41
2020-03-28 10:00:00 2.9 14 Nordeste 22 Nordeste 0 801 1.6 38
2020-03-28 09:00:00 2.6 12 Nordeste 20 Sudeste 0 800.5 1.4 42
2020-03-28 08:00:00 -0.1 12 Este 19 Este 0 800 1 41
2020-03-28 07:00:00 -2.7 12 Sudeste 19 Sudeste 0 799.4 0.4 52
2020-03-28 06:00:00 -1.9 15 Sudeste -- -- 0 799.1 0.1 52
2020-03-28 05:00:00 -2 19 Sudeste -- -- 0 799 0 58
2020-03-28 04:00:00 -1.9 -- -- -- -- 0 799 0.2 56
2020-03-28 03:00:00 -1.9 -- -- -- -- 0 799 0.3 57
2020-03-28 02:00:00 -2.3 -- -- -- -- 0 799 0.6 55
2020-03-28 01:00:00 -1.5 -- -- -- -- 0 798.8 0.7 51
2020-03-28 00:00:00 -1.5 -- -- -- -- 0 798.7 0.9 51
2020-03-27 23:00:00 -1.5 -- -- -- -- 0 798.4 1.3 45
2020-03-27 22:00:00 -1.8 -- -- -- -- 0 798.1 1.3 59
2020-03-27 21:00:00 -2.3 -- -- -- -- 0 797.8 1.4 69
2020-03-27 20:00:00 -1.9 -- -- -- -- 0 797.1 1.2 76
2020-03-27 19:00:00 -0.6 9 Este -- -- 0 796.8 1.2 70
2020-03-27 18:00:00 0.5 -- -- -- -- 0 796.4 1 67
2020-03-27 17:00:00 1.2 -- -- -- -- 0 795.9 0.6 62
2020-03-27 16:00:00 1.4 -- -- -- -- 0 795.6 0.4 60
2020-03-27 15:00:00 2.5 -- -- -- -- 0 795.4 0.5 57
2020-03-27 14:00:00 1.4 -- -- -- -- 0 795.3 0.6 55
2020-03-27 13:00:00 0.1 -- -- -- -- 0 795.2 0.8 66
2020-03-27 12:00:00 0.1 -- -- -- -- 0 794.9 0.9 69
2020-03-27 11:00:00 -0.6 -- -- -- -- 0 794.7 0.8 71
2020-03-27 10:00:00 -0.7 -- -- -- -- 0 794.4 0.7 58
2020-03-27 09:00:00 -1.7 -- -- -- -- 0 794 0.4 74
2020-03-27 08:00:00 -3.2 -- -- -- -- 0 793.9 0.3 97
2020-03-27 07:00:00 -3.8 7 Nordeste 13 Nordeste 0 793.7 -0.3 88
2020-03-27 06:00:00 -2.2 3 Noroeste 17 Oeste 0 793.6 -0.6 80
2020-03-27 05:00:00 -1.4 8 Oeste 14 Sudoeste 0 793.6 -1 80
2020-03-27 04:00:00 -1.9 13 Sudoeste 18 Sudoeste 0 794 -1.3 85
2020-03-27 03:00:00 -0.6 15 Sudoeste 27 Sudoeste 0 794.2 -1.5 72
2020-03-27 02:00:00 0.2 20 Sudoeste 28 Sudoeste 0 794.6 -1.4 62
2020-03-27 01:00:00 -1.2 18 Sudoeste 27 Oeste 0 795.3 -0.9 80
2020-03-27 00:00:00 0 17 Sudoeste 28 Sudoeste 0 795.7 -0.7 78
2020-03-26 23:00:00 1.4 20 Sudoeste 30 Sudoeste 0 796 -0.2 55
2020-03-26 22:00:00 1.2 16 Sudoeste 26 Sudoeste 0 796.2 -0.1 62
2020-03-26 21:00:00 0.8 11 Oeste 17 Oeste 0 796.4 0.2 78
2020-03-26 20:00:00 1.2 13 Oeste 19 Oeste 0 796.2 -0.1 72
2020-03-26 19:00:00 4.1 9 Noroeste 20 Norte 0 796.3 -0.2 57
2020-03-26 18:00:00 4.9 12 Noroeste 26 Noroeste 0 796.2 -0.5 57
2020-03-26 17:00:00 5.7 14 Noroeste 26 Noroeste 0 796.3 -0.7 50
2020-03-26 16:00:00 5.4 12 Noroeste 23 Norte 0 796.5 -0.8 52
2020-03-26 15:00:00 5.5 13 Norte 22 Norte 0 796.7 -0.7 48
2020-03-26 14:00:00 4.7 9 Nordeste -- -- 0 797 -0.7 35
2020-03-26 13:00:00 4.7 14 Nordeste -- -- 0 797.3 -0.5 30
2020-03-26 12:00:00 5.3 10 Nordeste -- -- 0 797.4 -0.5 31
2020-03-26 11:00:00 5.4 -- -- -- -- 0 797.7 -0.2 21
2020-03-26 10:00:00 3.1 -- -- -- -- 0 797.8 0 23
2020-03-26 09:00:00 3.4 6 Nordeste 12 Nordeste 0 797.9 0 24
2020-03-26 08:00:00 0.5 5 Norte 15 Norte 0 797.9 -0.2 31
2020-03-26 07:00:00 -1.9 8 Norte 14 Norte 0 797.8 -0.9 43
2020-03-26 06:00:00 -0.7 9 Norte 16 Norte 0 797.9 -1.3 39
2020-03-26 05:00:00 -0.2 10 Norte 19 Norte 0 798.1 -1.5 41
2020-03-26 04:00:00 0 10 Norte 18 Norte 0 798.7 -1.3 46
2020-03-26 03:00:00 0.3 12 Norte 21 Norte 0 799.2 -0.7 80
2020-03-26 02:00:00 0.6 11 Noroeste 24 Norte 0 799.6 -0.4 80
2020-03-26 01:00:00 1 13 Noroeste 34 Oeste 0 800 -0.4 92
2020-03-26 00:00:00 2.2 18 Oeste 36 Noroeste 0.6 799.9 -0.6 100
2020-03-25 23:00:00 2.7 12 Oeste 30 Oeste 0.6 800 -0.6 99
2020-03-25 22:00:00 2.7 13 Oeste 27 Noroeste 1 800.4 -0.1 97
2020-03-25 21:00:00 2.7 13 Oeste 34 Oeste 1.6 800.5 0.3 95
2020-03-25 20:00:00 1.6 9 Nordeste 16 Nordeste 0.6 800.6 0.1 99
2020-03-25 19:00:00 2.7 9 Oeste 20 Noroeste 0 800.5 -0.2 90
2020-03-25 18:00:00 4.1 9 Oeste 28 Oeste 0 800.2 -0.8 90
2020-03-25 17:00:00 5.2 21 Oeste 36 Oeste 0 800.5 -1 70
2020-03-25 16:00:00 4.8 17 Oeste 34 Oeste 0 800.7 -1.1 77
2020-03-25 15:00:00 5.1 17 Oeste 28 Oeste 0 801 -0.9 82
2020-03-25 14:00:00 4.1 10 Noroeste 25 Oeste 0 801.5 -0.2 88
2020-03-25 13:00:00 3.4 12 Noroeste 23 Oeste 0.2 801.8 0.2 93
2020-03-25 12:00:00 3.8 10 Noroeste 22 Oeste 0 801.9 0.5 89
2020-03-25 11:00:00 3.4 11 Noroeste -- -- 0 801.7 0.4 84
2020-03-25 10:00:00 1.9 6 Noroeste 19 Oeste 0 801.6 0.5 100
2020-03-25 09:00:00 1.2 10 Noroeste 20 Oeste 0 801.4 0.4 100
2020-03-25 08:00:00 1 10 Noroeste 21 Oeste 0 801.3 0.3 100
2020-03-25 07:00:00 1 10 Oeste 22 Noroeste 0 801.1 -0.1 100
2020-03-25 06:00:00 1 9 Noroeste 18 Oeste 0 801 -0.5 100
2020-03-25 05:00:00 1 8 Oeste 15 Oeste 0 801 -0.6 99
2020-03-25 04:00:00 1.1 10 Oeste 18 Oeste 0 801.2 -0.4 98
2020-03-25 03:00:00 -0.4 5 Sudoeste -- -- 0 801.5 -0.2 91
2020-03-25 02:00:00 0.6 -- -- -- -- 0 801.6 -0.1 88
2020-03-25 01:00:00 0.8 -- -- -- -- 0 801.6 0 86
2020-03-25 00:00:00 1.2 5 Sur 17 Sudeste 0 801.7 0.2 79
2020-03-24 23:00:00 2.1 12 Sudeste 19 Este 0 801.7 0.5 78
2020-03-24 22:00:00 1.6 13 Este 20 Este 0 801.6 0.7 89
2020-03-24 21:00:00 2.2 13 Nordeste -- -- 0 801.5 0.9 90
2020-03-24 20:00:00 2.4 -- -- -- -- 0 801.2 0.8 88
2020-03-24 19:00:00 2.8 -- -- -- -- 0 800.9 0.5 85
2020-03-24 18:00:00 3.9 -- -- -- -- 0 800.6 0.3 74
2020-03-24 17:00:00 4.4 -- -- -- -- 0 800.4 -0.2 78
2020-03-24 16:00:00 4 -- -- -- -- 0 800.4 0.1 77
2020-03-24 15:00:00 4.8 -- -- -- -- 0 800.3 -0.4 72
2020-03-24 14:00:00 4.3 -- -- -- -- 0 800.6 0.4 80
2020-03-24 13:00:00 2.4 -- -- -- -- 0 800.3 0.5 92
2020-03-24 12:00:00 1.8 -- -- -- -- 0 800.7 1.2 97
2020-03-24 11:00:00 2.7 28 Este 56 Este 0 800.2 0.6 97
2020-03-24 10:00:00 0.6 36 Este 52 Este 0 799.8 0.6 100
2020-03-24 09:00:00 0.2 35 Este -- -- 0 799.5 0.3 --
2020-03-24 08:00:00 0.1 -- -- -- -- 0 799.6 0.5 100
2020-03-24 07:00:00 0 -- -- -- -- 0 799.2 -0.4 100
2020-03-24 06:00:00 0.3 29 Este 51 Sudeste 0 799.2 -0.1 96
2020-03-24 05:00:00 0.2 32 Sudeste 61 Sudeste 0 799.1 -0.6 100
2020-03-24 04:00:00 0.5 27 Sudeste 47 Este 0 799.6 -0.4 100
2020-03-24 03:00:00 0.6 32 Este 53 Sudeste 0 799.3 -0.7 100
2020-03-24 02:00:00 0.6 28 Sudeste 47 Sudeste 0 799.7 -0.5 100
2020-03-24 01:00:00 1 30 Este -- -- 0 800 0 92
2020-03-24 00:00:00 1 32 Este -- -- 0 800 0.2 92
2020-03-23 23:00:00 1.1 -- -- -- -- 0 800.2 0.9 88
2020-03-23 22:00:00 0.7 -- -- -- -- 0 800 0.7 92
2020-03-23 21:00:00 0.9 24 Sudeste -- -- 0 799.8 0.8 88
2020-03-23 20:00:00 0.6 27 Este 36 Este 0 799.3 0.7 90
2020-03-23 19:00:00 1.8 25 Este 32 Este 0 799.3 0.8 82
2020-03-23 18:00:00 3 22 Este 40 Este 0 799 -0.2 72
2020-03-23 17:00:00 2.9 27 Este 48 Este 0 798.6 -0.7 76
2020-03-23 16:00:00 1.8 34 Este 49 Este 0 798.5 -1.4 96
2020-03-23 15:00:00 0.7 25 Este 39 Nordeste 0 799.2 -0.7 98
2020-03-23 14:00:00 2.7 27 Este 38 Nordeste 0 799.3 -0.3 80
2020-03-23 13:00:00 2 21 Este 33 Este 0 799.9 0.4 88
2020-03-23 12:00:00 1.5 24 Este 37 Este 0 799.9 0.7 94
2020-03-23 11:00:00 1.1 24 Este 34 Este 0 799.6 0.9 95
2020-03-23 10:00:00 0.7 18 Este 28 Este 0 799.5 1.1 96
2020-03-23 09:00:00 -0.4 19 Este 29 Este 0 799.2 1.1 100
2020-03-23 08:00:00 -0.7 -- -- -- -- 0 798.7 0.8 98
2020-03-23 07:00:00 -0.7 26 Este 37 Este 0 798.4 0.6 98
2020-03-23 06:00:00 -0.6 28 Este 40 Sudeste 0 798.1 0.1 99
2020-03-23 05:00:00 -0.6 29 Sudeste 42 Este 0 797.9 -0.4 100
2020-03-23 04:00:00 -0.3 29 Este 40 Este 0 797.8 -0.8 100
2020-03-23 03:00:00 0 28 Sudeste 38 Sudeste 0 798 -0.7 100
2020-03-23 02:00:00 0 25 Este 35 Este 0 798.3 -0.5 --
2020-03-23 01:00:00 0.1 21 Este 35 Este 0 798.6 0.3 --
2020-03-23 00:00:00 0.2 28 Este 38 Este 0 798.7 0.4 --
2020-03-22 23:00:00 0.3 25 Este 36 Este 0 798.8 1 --
2020-03-22 22:00:00 0.3 28 Este 37 Este 0 798.3 0.7 --
2020-03-22 21:00:00 0.6 20 Este 31 Este 0 798.3 1.1 --
2020-03-22 20:00:00 0.6 22 Este 28 Este 0 797.8 0.8 100
2020-03-22 19:00:00 0.9 15 Nordeste 28 Este 0.2 797.6 0.7 100
2020-03-22 18:00:00 1.3 14 Nordeste 34 Este 0.8 797.2 0.2 100
2020-03-22 17:00:00 1.2 19 Nordeste 26 Nordeste 0 797 -0.2 100
2020-03-22 16:00:00 1.5 9 Nordeste 19 Norte 0 796.9 -0.3 97
2020-03-22 15:00:00 2.4 11 Nordeste 26 Nordeste 0 797 -0.2 90
2020-03-22 14:00:00 1.8 15 Nordeste 23 Nordeste 0 797.2 0.2 88
2020-03-22 13:00:00 1.6 18 Nordeste 32 Este 0 797.2 0.5 83
2020-03-22 12:00:00 0.8 23 Este 35 Nordeste 0 797.2 0.9 90
2020-03-22 11:00:00 0 15 Este 28 Este 0 797 1.1 88
2020-03-22 10:00:00 0.7 19 Este 26 Este 0 796.7 1.1 79
2020-03-22 09:00:00 0.3 18 Este 28 Este 0 796.3 0.7 79
2020-03-22 08:00:00 -1.2 17 Este 27 Este 0 795.9 0.5 90
2020-03-22 07:00:00 -2 15 Este 21 Este 0 795.6 0.2 97
2020-03-22 06:00:00 -1.7 10 Este 17 Este 0 795.6 0 98
2020-03-22 05:00:00 -1.9 9 Este 15 Este 0 795.4 -0.6 97
2020-03-22 04:00:00 -2.4 8 Este 12 Este 0 795.4 -0.8 95
2020-03-22 03:00:00 -2.5 7 Sudeste 9 Sudeste 0 795.6 -0.8 89
2020-03-22 02:00:00 -2.6 4 Sudeste 6 Sudeste 0 796 -0.3 90
2020-03-22 01:00:00 -2.3 4 Este 10 Sudeste 0 796.2 0 86
2020-03-22 00:00:00 -2.9 5 Sudoeste 10 Oeste 0 796.4 0.4 84
2020-03-21 23:00:00 -1.7 8 Sur 20 Sur 0 796.3 0.7 75
2020-03-21 22:00:00 -1.3 15 Sur 23 Sur 0 796.2 0.8 76
2020-03-21 21:00:00 -1.2 17 Sudeste 20 Sudeste 0 796 0.9 88
2020-03-21 20:00:00 -0.8 12 Este 14 Este 0 795.6 0.4 99
2020-03-21 19:00:00 0 5 Este 17 Nordeste 0 795.4 0.1 87
2020-03-21 18:00:00 1 8 Nordeste 19 Este 0 795.1 -0.3 85
2020-03-21 17:00:00 1.3 9 Nordeste 21 Nordeste 0 795.2 -0.5 93
2020-03-21 16:00:00 1.4 9 Nordeste 17 Nordeste 0 795.3 -0.7 97
2020-03-21 15:00:00 2.8 4 Este 27 Este 0 795.4 -0.7 96
2020-03-21 14:00:00 0.7 15 Este 27 Sudeste 0 795.7 -0.4 96
2020-03-21 13:00:00 0.8 -- -- -- -- 0.2 796 0 96
2020-03-21 12:00:00 0.2 -- -- -- -- 0.6 796.1 0.5 99
2020-03-21 11:00:00 0 13 Sudeste 25 Sur 0.8 796.1 0.5 100
2020-03-21 10:00:00 0 14 Este 47 Este 0.6 796 0.5 --
2020-03-21 09:00:00 0.1 17 Este 34 Este 0.6 795.6 0.2 --
2020-03-21 08:00:00 0.6 9 Sudeste 16 Este 0.8 795.6 -0.1 --
2020-03-21 07:00:00 1.3 6 Sudeste 38 Sudeste 1 795.5 -0.5 100
2020-03-21 06:00:00 1.3 24 Sudeste 46 Sudeste 0.2 795.4 -0.8 100
2020-03-21 05:00:00 1.4 20 Sudeste 36 Sudeste 0.2 795.7 -0.9 --
2020-03-21 04:00:00 1.7 10 Este -- -- 1 796 -0.8 100
2020-03-21 03:00:00 2 21 Sudoeste -- -- 0.6 796.2 -1.2 100
2020-03-21 02:00:00 1.9 18 Este 64 Sudeste 1.8 796.6 -1.2 100
2020-03-21 01:00:00 2.3 31 Este 66 Este 0 796.8 -1.4 100
2020-03-21 00:00:00 2.2 21 Sudeste 55 Este 0 797.4 -1.2 100
2020-03-20 23:00:00 2.3 18 Este 34 Sudeste 0 797.8 -0.3 100
2020-03-20 22:00:00 2.2 18 Sudeste 39 Sudeste 1.6 798.2 -0.4 100
2020-03-20 21:00:00 1.7 18 Sudeste 47 Este 4.4 798.6 -0.2 100
2020-03-20 20:00:00 2.2 24 Este 45 Este 0 798.1 -0.9 100
2020-03-20 19:00:00 2.2 24 Este 41 Este 0 798.6 -0.6 100
2020-03-20 18:00:00 2.2 14 Este 30 Sudeste 0 798.8 -1.1 100
2020-03-20 17:00:00 2.5 9 Sudeste 43 Este 0 799 -1.1 99
2020-03-20 16:00:00 2.5 19 Sudeste 37 Sur 0 799.2 -1 97
2020-03-20 15:00:00 3.6 12 Sur 27 Sudeste 0 799.9 -0.5 93
2020-03-20 14:00:00 3.1 11 Sudeste 23 Sudeste 0 800.1 -0.4 97
2020-03-20 13:00:00 3.3 13 Nordeste 27 Este 0 800.2 -0.1 94
2020-03-20 12:00:00 4 10 Este -- -- 0 800.4 0.3 87
2020-03-20 11:00:00 5.1 -- -- -- -- 0.2 800.5 0.4 77
2020-03-20 10:00:00 2.5 20 Sudeste 34 Sur 1.4 800.3 0.2 93
2020-03-20 09:00:00 3.2 18 Sur 31 Sur 0 800.1 -0.1 87
2020-03-20 08:00:00 3.1 6 Sur -- -- 0 800.1 -0.2 87
2020-03-20 07:00:00 3.4 -- -- -- -- 0 800.1 -0.7 84
2020-03-20 06:00:00 2.9 15 Sur 26 Sur 0 800.2 -0.8 87
2020-03-20 05:00:00 3.4 12 Sudoeste 20 Sur 0 800.3 -1 74
2020-03-20 04:00:00 3.3 12 Sur 19 Sur 0 800.8 -0.9 77
2020-03-20 03:00:00 3 4 Sur 8 Sur 0 801 -1.1 73
2020-03-20 02:00:00 3.3 6 Sudoeste 13 Sur 0 801.3 -1.1 73
2020-03-20 01:00:00 3.5 6 Sudeste 9 Sudeste 0 801.7 -0.7 71
2020-03-20 00:00:00 3.6 4 Sudeste 8 Sudeste 0 802.1 -0.3 72
2020-03-19 23:00:00 3.9 5 Sur 19 Sur 0 802.4 0 70
2020-03-19 22:00:00 4.5 10 Sur 23 Sur 0 802.4 -0.1 63
2020-03-19 21:00:00 4.8 15 Sur 23 Sur 0 802.4 -0.1 59
2020-03-19 20:00:00 5.4 21 Sur 28 Sur 0 802.4 -0.6 53
2020-03-19 19:00:00 5.3 19 Sudeste 28 Sudeste 0 802.5 -0.9 53
2020-03-19 18:00:00 5.2 18 Sudeste 27 Sudeste 0 802.5 -1.4 56
2020-03-19 17:00:00 5.7 14 Sudeste 17 Sudeste 0 803 -1.5 58
2020-03-19 16:00:00 6.5 11 Sudeste 16 Este 0 803.4 -1.6 56
2020-03-19 15:00:00 7 4 Este 10 Nordeste 0 803.9 -1.5 71
2020-03-19 14:00:00 6.2 9 Nordeste 14 Nordeste 0 804.5 -1 76
2020-03-19 13:00:00 6.4 10 Nordeste 15 Este 0 805 -0.7 68
2020-03-19 12:00:00 6.3 8 Nordeste 12 Nordeste 0 805.4 -0.2 72
2020-03-19 11:00:00 8.1 5 Nordeste 11 Nordeste 0 805.5 -0.1 55
2020-03-19 10:00:00 7.8 3 Norte 17 Sudeste 0 805.7 -0.1 57
2020-03-19 09:00:00 5.4 10 Sur 20 Sudeste 0 805.6 -0.2 59
2020-03-19 08:00:00 3.9 17 Sudeste 21 Sudeste 0 805.6 -0.4 73
2020-03-19 07:00:00 4 4 Este 11 Sur 0 805.8 -0.3 71
2020-03-19 06:00:00 4.6 8 Sudoeste 15 Sudeste 0 805.8 -0.8 69
2020-03-19 05:00:00 5.5 12 Sudeste 24 Sudeste 0 806 -1.1 63
2020-03-19 04:00:00 5.3 18 Sudeste 25 Sudeste 0 806.1 -1.4 64
2020-03-19 03:00:00 5.6 20 Sudeste 32 Sudeste 0 806.6 -1.4 65
2020-03-19 02:00:00 5.9 22 Sudeste 30 Sudeste 0 807.1 -1.2 62
2020-03-19 01:00:00 5.7 25 Sudeste 34 Sudeste 0 807.5 -0.9 63
2020-03-19 00:00:00 5.9 22 Sudeste 30 Sudeste 0 808 -0.5 62
2020-03-18 23:00:00 5.7 23 Sudeste 31 Sudeste 0 808.3 0 64
2020-03-18 22:00:00 5.7 24 Sudeste 32 Sudeste 0 808.4 0.1 65
2020-03-18 21:00:00 6.1 22 Sudeste 31 Sudeste 0 808.5 0.2 62
2020-03-18 20:00:00 6.2 22 Sudeste 33 Sudeste 0 808.3 0 62
2020-03-18 19:00:00 6.5 21 Sudeste 26 Sudeste 0 808.3 0 61
2020-03-18 18:00:00 6.2 19 Sudeste 31 Este 0 808.3 0 66
2020-03-18 17:00:00 7.2 18 Este 35 Sudeste 0 808.3 -0.3 59
2020-03-18 16:00:00 8.2 17 Este 39 Sudeste 0 808.3 -0.3 52
2020-03-18 15:00:00 8.5 26 Sudeste 42 Sudeste 0 808.3 -0.6 54
2020-03-18 14:00:00 7.8 28 Sudeste 53 Sudeste 0 808.6 -0.7 52
2020-03-18 13:00:00 6.9 41 Sudeste 60 Este 0 808.6 0.1 53
2020-03-18 12:00:00 6.5 43 Sudeste 62 Sudeste 0 808.9 0.6 52
2020-03-18 11:00:00 6.6 33 Sudeste 67 Sudeste 0 809.3 1 51
2020-03-18 10:00:00 5.4 36 Este 71 Este 0 808.5 0.2 44
2020-03-18 09:00:00 4.7 34 Sudeste 54 Sudeste 0 808.3 0 52
2020-03-18 08:00:00 3.5 34 Sudeste 63 Este 0 808.3 -0.1 58
2020-03-18 07:00:00 4.3 33 Este 62 Este 0 808.3 -0.3 46
2020-03-18 06:00:00 3.8 37 Sudeste 54 Sudeste 0 808.3 -0.3 59
2020-03-18 05:00:00 4 31 Sudeste 63 Sudeste 0 808.4 0 72
2020-03-18 04:00:00 4.3 31 Este 49 Sudeste 0 808.6 -0.3 76
2020-03-18 03:00:00 4.3 28 Este 50 Sudeste 0 808.6 -0.7 79
2020-03-18 02:00:00 3.3 33 Este 55 Este 0 808.4 -0.9 86
2020-03-18 01:00:00 2.6 28 Este 51 Este 0 808.9 0.1 96
2020-03-18 00:00:00 3.2 32 Sudeste 50 Sudeste 0 809.3 0.4 89
2020-03-17 23:00:00 3.1 32 Sudeste 62 Este 0 809.3 0.9 93
2020-03-17 22:00:00 3.6 38 Sudeste 55 Sudeste 1 808.8 0.9 88
2020-03-17 21:00:00 3.2 37 Este 54 Sudeste 2.2 808.9 1.6 91
2020-03-17 20:00:00 3 28 Este 48 Este 2 808.4 2 90
2020-03-17 19:00:00 3.1 23 Este 49 Este 3.8 807.9 1.5 87
2020-03-17 18:00:00 3.1 30 Este 73 Este 5.4 807.3 2 79
2020-03-17 17:00:00 3.7 29 Este 55 Nordeste 5.2 806.4 0.8 72
2020-03-17 16:00:00 2.3 9 Este 55 Este 4.4 806.4 1 84
2020-03-17 15:00:00 2.1 42 Este 68 Este 2.4 805.3 0.2 76
2020-03-17 14:00:00 1.9 35 Este 64 Este 0 805.6 1 80
2020-03-17 13:00:00 0.7 35 Este -- -- 0 805.4 1.6 89
2020-03-17 12:00:00 -0.8 -- -- -- -- 0 805.1 2.1 94
2020-03-17 11:00:00 -1.4 -- -- -- -- 0 804.6 1.9 96
2020-03-17 10:00:00 -2.1 -- -- -- -- 0 803.8 1.6 98
2020-03-17 09:00:00 -3.4 -- -- -- -- 0 803 1.8 99
2020-03-17 08:00:00 -4.3 -- -- -- -- 0 802.7 2.1 98
2020-03-17 07:00:00 -5.2 -- -- -- -- 0 802.2 2.1 98
2020-03-17 06:00:00 -5 -- -- -- -- 0 801.2 0.7 98
2020-03-17 05:00:00 -5.7 -- -- -- -- 0 800.6 0.5 98
2020-03-17 04:00:00 -5.5 -- -- -- -- 0 800.1 0.7 98
2020-03-17 03:00:00 -5.9 -- -- -- -- 0 800.5 1.2 98
2020-03-17 02:00:00 -5.6 -- -- -- -- 0 800.1 1.2 98
2020-03-17 01:00:00 -5.6 -- -- -- -- 0 799.4 0.9 98
2020-03-17 00:00:00 -5.1 -- -- -- -- 0 799.3 1 98
2020-03-16 23:00:00 -4.4 -- -- -- -- 0 798.9 1.2 99
2020-03-16 22:00:00 -4.2 -- -- -- -- 0 798.5 1.3 99
2020-03-16 21:00:00 -4.2 -- -- -- -- 0 798.3 1.4 99
2020-03-16 20:00:00 -4.2 -- -- -- -- 0 797.7 0.7 99
2020-03-16 19:00:00 -4.2 62 Este -- -- 0 797.2 0.1 99
2020-03-16 18:00:00 -4 -- -- -- -- 0 796.9 -0.1 99
2020-03-16 17:00:00 -4.7 -- -- -- -- 0 797 -0.4 98
2020-03-16 16:00:00 -4.5 -- -- -- -- 0 797.1 -0.1 99
2020-03-16 15:00:00 -4.4 -- -- -- -- 0 797 0.1 99
2020-03-16 14:00:00 -4.7 -- -- -- -- -- 797.4 0.8 98
2020-03-16 13:00:00 -5 -- -- -- -- 0 797.2 1 98
2020-03-16 12:00:00 -5 -- -- -- -- 0 796.9 1.3 98
2020-03-16 11:00:00 -5.2 -- -- -- -- 0 796.6 1.6 98
2020-03-16 10:00:00 -5.5 -- -- -- -- 0 796.2 1.5 98
2020-03-16 09:00:00 -5.7 -- -- -- -- 0 795.6 1.2 98
2020-03-16 08:00:00 -6.1 -- -- -- -- 0 795 0.6 98
2020-03-16 07:00:00 -6.2 -- -- -- -- 0 794.7 0.2 97
2020-03-16 06:00:00 -6.2 -- -- -- -- 0 794.4 -0.6 97
2020-03-16 05:00:00 -6.1 -- -- -- -- 0 794.4 -0.8 97
2020-03-16 04:00:00 -5.9 -- -- -- -- 0 794.5 -1.6 98
2020-03-16 03:00:00 -6.1 -- -- -- -- 0 795 -2 97
2020-03-16 02:00:00 -6.1 18 Oeste 31 Oeste 0 795.2 -2 98
2020-03-16 01:00:00 -5.3 13 Noroeste 26 Oeste 0 796.1 -1.2 98
2020-03-16 00:00:00 -4.8 15 Oeste 25 Noroeste 0 797 0.1 98
2020-03-15 23:00:00 -4 9 Oeste 21 Oeste 0 797.2 0.6 99
2020-03-15 22:00:00 -1.3 14 Oeste 36 Sudoeste 0 797.3 0.4 100
2020-03-15 21:00:00 0.4 27 Sudoeste 49 Sudoeste 0 796.9 -0.6 96
2020-03-15 20:00:00 1.2 35 Sudoeste 61 Sudoeste 0 796.6 -1.5 96
2020-03-15 19:00:00 3 35 Sudoeste 67 Sudoeste 0 796.9 -1.9 93
2020-03-15 18:00:00 4.4 34 Sudoeste 68 Sudoeste 0 797.5 -1.6 92
2020-03-15 17:00:00 5.1 39 Sudoeste 66 Oeste 0 798.1 -1.8 83
2020-03-15 16:00:00 5.9 39 Sudoeste 67 Oeste 0 798.8 -1.8 82
2020-03-15 15:00:00 7.5 38 Sudoeste 69 Sudoeste 0 799.1 -2.3 73
2020-03-15 14:00:00 8.5 36 Sudoeste 65 Sudoeste 0 799.9 -2 57
2020-03-15 13:00:00 8 36 Sudoeste 57 Sudoeste 0 800.6 -1.7 59
2020-03-15 12:00:00 8.4 27 Sudoeste 50 Oeste 0 801.4 -0.8 65
2020-03-15 11:00:00 7.9 32 Sudoeste 51 Sudoeste 0 801.9 -0.4 64
2020-03-15 10:00:00 7.9 14 Oeste 41 Sur 0 802.3 -0.1 66
2020-03-15 09:00:00 6.9 19 Sur 37 Sur 0 802.2 -0.5 63
2020-03-15 08:00:00 5.4 20 Sur 39 Sur 0 802.3 -0.8 69
2020-03-15 07:00:00 4.8 21 Sur 34 Sur 0 802.4 -1.2 71
2020-03-15 06:00:00 5.5 24 Sudoeste 34 Sudoeste 0 802.7 -1.7 63
2020-03-15 05:00:00 4.3 14 Sur 24 Sur 0 803.1 -1.7 49
2020-03-15 04:00:00 3.8 15 Sur 22 Sur 0 803.6 -1.6 54
2020-03-15 03:00:00 3.8 14 Sur 22 Sur 0 804.4 -1.1 64
2020-03-15 02:00:00 4.4 15 Sur 22 Sur 0 804.8 -1.1 68
2020-03-15 01:00:00 4.3 13 Sur 19 Sur 0 805.2 -0.8 65
2020-03-15 00:00:00 5.2 12 Sudeste 15 Sudeste 0 805.5 -0.5 55
2020-03-14 23:00:00 4.6 9 Sudeste 15 Sudeste 0 805.9 0 42
2020-03-14 22:00:00 4.6 8 Sudeste 12 Sudeste 0 806 0.2 45
2020-03-14 21:00:00 3.8 6 Sur 10 Sur 0 806 0.2 45
2020-03-14 20:00:00 4.7 7 Sudeste 9 Sudeste 0 805.9 0 37
2020-03-14 19:00:00 7.6 6 Sudoeste 22 Oeste 0 805.8 -0.2 51
2020-03-14 18:00:00 10.4 8 Oeste 17 Oeste 0 805.8 -0.5 38
2020-03-14 17:00:00 10.6 11 Noroeste 18 Oeste 0 805.9 -0.8 37
2020-03-14 16:00:00 11.2 7 Norte 17 Oeste 0 806 -1 44
2020-03-14 15:00:00 11 8 Noroeste 19 Oeste 0 806.3 -0.8 51
2020-03-14 14:00:00 11.2 8 Norte 18 Oeste 0 806.7 -0.3 56
2020-03-14 13:00:00 10.9 9 Oeste 18 Noroeste 0 807 0.2 45
2020-03-14 12:00:00 10.9 13 Nordeste 24 Nordeste 0 807.1 0.6 27
2020-03-14 11:00:00 10.8 14 Nordeste 24 Este 0 807 0.7 23
2020-03-14 10:00:00 9.6 17 Este 26 Este 0 806.8 0.9 16
2020-03-14 09:00:00 7.6 18 Este 27 Este 0 806.5 0.8 17
2020-03-14 08:00:00 5.2 19 Este 27 Este 0 806.3 0.9 22
2020-03-14 07:00:00 5.1 19 Este 25 Este 0 805.9 0.3 21
2020-03-14 06:00:00 3 15 Este 25 Este 0 805.7 0.1 70
2020-03-14 05:00:00 4.5 17 Este 32 Este 0 805.4 -0.6 59
2020-03-14 04:00:00 3 27 Este 35 Este 0 805.6 -0.6 93
2020-03-14 03:00:00 5 29 Este 38 Este 0 805.6 -0.6 76
2020-03-14 02:00:00 4.4 21 Este 31 Este 0 806 -0.1 91
2020-03-14 01:00:00 3.9 22 Este 31 Este 0 806.2 0.4 98
2020-03-14 00:00:00 4.7 19 Este 30 Este 0 806.2 0.6 83
2020-03-13 23:00:00 5 19 Este 28 Este 0 806.1 0.8 96
2020-03-13 22:00:00 5.2 21 Este 30 Este 0 805.8 0.7 97
2020-03-13 21:00:00 4.8 18 Este 25 Este 0 805.6 0.7 99
2020-03-13 20:00:00 5.2 18 Este 29 Nordeste 0 805.3 0.6 99
2020-03-13 19:00:00 5.6 10 Este 15 Este 0 805.1 0.5 97
2020-03-13 18:00:00 7.5 5 Nordeste 15 Oeste 0 804.9 0.2 83
2020-03-13 17:00:00 9.4 4 Este 21 Oeste 0 804.7 -0.4 74
2020-03-13 16:00:00 10.6 11 Oeste 19 Noroeste 0 804.6 -0.8 68
2020-03-13 15:00:00 10.6 8 Oeste 15 Oeste 0 804.7 -0.5 67
2020-03-13 14:00:00 8.5 8 Oeste 17 Oeste 0 805.1 -0.1 81
2020-03-13 13:00:00 9 12 Oeste 18 Oeste 0 805.4 0.3 71
2020-03-13 12:00:00 10.8 8 Oeste 14 Oeste 0 805.2 0.2 60
2020-03-13 11:00:00 10.7 9 Noroeste 16 Noroeste 0 805.2 0.4 55
2020-03-13 10:00:00 9.9 6 Oeste 10 Oeste 0 805.1 0.5 55
2020-03-13 09:00:00 9.8 2 Norte 9 Sur 0 805 0.5 54
2020-03-13 08:00:00 3.8 7 Sur 12 Sur 0 804.8 0.1 60
2020-03-13 07:00:00 4.2 5 Este 20 Sudeste 0 804.6 -0.3 42
2020-03-13 06:00:00 4.9 14 Sudeste 17 Sudeste 0 804.5 -0.8 63
2020-03-13 05:00:00 3.8 6 Sur 13 Sudoeste 0 804.7 -0.9 52
2020-03-13 04:00:00 4.1 6 Sur 17 Sudoeste 0 804.9 -1.2 43
2020-03-13 03:00:00 5.4 12 Sudoeste 17 Sur 0 805.3 -1.4 36
2020-03-13 02:00:00 6.2 14 Sur 20 Sur 0 805.6 -1.2 48
2020-03-13 01:00:00 5.9 7 Sur 15 Sur 0 806.1 -0.7 61
2020-03-13 00:00:00 6.4 9 Sudeste 14 Sudeste 0 806.7 0 64
2020-03-12 23:00:00 7.2 10 Sudeste 14 Sudeste 0 806.8 0.4 62
2020-03-12 22:00:00 7.5 6 Sudeste 11 Sur 0 806.8 0.5 55
2020-03-12 21:00:00 7.8 5 Sur 15 Sudoeste 0 806.7 0.4 49
2020-03-12 20:00:00 9.8 12 Sudoeste 25 Sudoeste 0 806.4 0.2 38
2020-03-12 19:00:00 10.4 6 Sur 15 Oeste 0 806.3 -0.2 59
2020-03-12 18:00:00 11.3 8 Oeste 20 Noroeste 0 806.3 -0.6 65
2020-03-12 17:00:00 11.7 13 Oeste 20 Noroeste 0 806.2 -1.3 63
2020-03-12 16:00:00 12.6 11 Oeste 24 Sudeste 0 806.5 -1.6 58
2020-03-12 15:00:00 14.8 10 Noroeste 27 Sudoeste 0 806.9 -1.3 35
2020-03-12 14:00:00 13.6 12 Oeste 22 Sudoeste 0 807.5 -1 49
2020-03-12 13:00:00 13.7 13 Oeste 39 Sur 0 808.1 -0.1 41
2020-03-12 12:00:00 14.1 21 Sur 41 Sudoeste 0 808.2 0.2 37
2020-03-12 11:00:00 11.9 23 Sudoeste 42 Sudoeste 0 808.5 0.6 39
2020-03-12 10:00:00 11.3 25 Sudoeste 45 Sudoeste 0 808.2 0.3 39
2020-03-12 09:00:00 10.9 29 Sudoeste 47 Sudoeste 0 808 -0.1 38
2020-03-12 08:00:00 10.5 28 Sur 47 Sur 0 807.9 -0.3 38
2020-03-12 07:00:00 10.5 23 Sur 40 Sur 0 807.9 -0.8 40
2020-03-12 06:00:00 10.9 23 Sur 52 Sur 0 808.1 -1.2 37
2020-03-12 05:00:00 11.3 28 Sur 53 Sur 0 808.2 -1.7 34
2020-03-12 04:00:00 11.7 32 Sur 59 Sur 0 808.7 -1.7 32
2020-03-12 03:00:00 12.2 29 Sur 53 Sur 0 809.3 -1.4 30
2020-03-12 02:00:00 12.3 30 Sudoeste 44 Sudoeste 0 809.9 -1 29
2020-03-12 01:00:00 12.2 26 Sudoeste 42 Sur 0 810.4 -0.6 29
2020-03-12 00:00:00 12.7 29 Sur 42 Sur 0 810.7 -0.4 28
2020-03-11 23:00:00 12.6 26 Sudoeste -- -- 0 810.9 -0.2 28
2020-03-11 22:00:00 11.6 16 Sur 33 Sur 0 811 -0.1 31
2020-03-11 21:00:00 12.1 15 Sur -- -- 0 811.1 0 30
2020-03-11 20:00:00 12.6 -- -- -- -- 0 811.1 -0.1 30
2020-03-11 19:00:00 13 -- -- -- -- 0 811.1 -0.4 30
2020-03-11 18:00:00 14 18 Sudoeste -- -- 0 811.1 -0.6 29
2020-03-11 17:00:00 15.1 14 Oeste 26 Sudoeste 0 811.2 -1 32
2020-03-11 16:00:00 15.5 12 Oeste 21 Oeste 0 811.5 -1 44
2020-03-11 15:00:00 16.3 13 Oeste 23 Oeste 0 811.7 -1.1 38
2020-03-11 14:00:00 16.4 12 Oeste 23 Oeste 0 812.2 -0.6 32
2020-03-11 13:00:00 16 12 Oeste 28 Sudoeste 0 812.5 0 39
2020-03-11 12:00:00 16.6 15 Sudoeste -- -- 0 812.8 0.5 29
2020-03-11 11:00:00 15.8 -- -- -- -- 0 812.8 0.6 27
2020-03-11 10:00:00 14.3 -- -- -- -- 0 812.5 0.3 30
2020-03-11 09:00:00 12.5 17 Sudoeste -- -- 0 812.3 0.3 36
2020-03-11 08:00:00 10.1 -- -- -- -- 0 812.2 0.3 42
2020-03-11 07:00:00 9.2 18 Sudoeste -- -- 0 812.2 -0.1 49
2020-03-11 06:00:00 9 -- -- -- -- 0 812 -0.8 51
2020-03-11 05:00:00 10.3 -- -- -- -- 0 811.9 -1.2 48
2020-03-11 04:00:00 9.3 -- -- -- -- 0 812.3 -1.1 51
2020-03-11 03:00:00 9.3 17 Sudoeste -- -- 0 812.8 -1 52
2020-03-11 02:00:00 9.9 -- -- -- -- 0 813.1 -0.9 50
2020-03-11 01:00:00 9.7 -- -- -- -- 0 813.4 -0.4 49
2020-03-11 00:00:00 8.7 16 Sudoeste 26 Sudoeste 0 813.8 0.1 57
2020-03-10 23:00:00 9.4 19 Sudoeste -- -- 0 814 0.5 55
2020-03-10 22:00:00 10 -- -- -- -- 0 813.8 0.5 51
2020-03-10 21:00:00 9 -- -- -- -- 0 813.7 0.5 57
2020-03-10 20:00:00 9.4 13 Sudoeste -- -- 0 813.5 0.2 52
2020-03-10 19:00:00 10.8 -- -- -- -- 0 813.3 -0.2 50
2020-03-10 18:00:00 13.8 11 Oeste -- -- 0 813.2 -0.5 47
2020-03-10 17:00:00 14.4 -- -- -- -- 0 813.3 -0.7 44
2020-03-10 16:00:00 14.4 -- -- -- -- 0 813.5 -0.7 43
2020-03-10 15:00:00 14.5 -- -- -- -- 0 813.7 -0.5 43
2020-03-10 14:00:00 13.9 12 Oeste -- -- 0 814 0 42
2020-03-10 13:00:00 14.4 12 Oeste -- -- 0 814.2 0.6 39
2020-03-10 12:00:00 13.8 -- -- -- -- 0 814.2 0.9 38
2020-03-10 11:00:00 13.3 -- -- -- -- 0 814 1.1 40
2020-03-10 10:00:00 11.9 -- -- -- -- 0 813.6 0.9 47
2020-03-10 09:00:00 9.2 12 Sudoeste 16 Sudoeste 0 813.3 0.8 63
2020-03-10 08:00:00 6.7 9 Sudoeste 13 Sudoeste 0 812.9 0.7 71
2020-03-10 07:00:00 5.2 6 Sur 11 Sudoeste 0 812.7 0.3 79
2020-03-10 06:00:00 5.5 5 Sudoeste 11 Sur 0 812.5 -0.2 81
2020-03-10 05:00:00 6.1 8 Sur 12 Sur 0 812.2 -0.4 78
2020-03-10 04:00:00 6.4 5 Sur 10 Nordeste 0 812.4 -0.4 75
2020-03-10 03:00:00 7.5 6 Este 20 Este 0 812.7 -0.2 73
2020-03-10 02:00:00 8.1 14 Sudeste 21 Sudeste 0 812.6 -0.3 68
2020-03-10 01:00:00 7.6 15 Este 24 Este 0 812.8 0.5 68
2020-03-10 00:00:00 6.5 18 Este 31 Este 0 812.9 0.6 65